THY384 LOWW-LIMC
Flight info
| Callsign | THY384 |
|---|---|
| Flight time | N/A |
| Altitude | 34000 |
| Route | OSPEN5B/16 OSPEN DCT ABRUK DCT SETAL DCT DETSA/N0452F330 DCT RENTA/N0371F190 M984 EVRIP |
| Aircraft | A20N/M-SDE2E3FGHIRWXY/LB1 |
Departure
| Time | 2026-05-05 19:12 |
|---|---|
| Airport | Vienna International Airport (LOWW) |
Arrival
| Time | N/A |
|---|---|
| Airport | Milan Malpensa International Airport (LIMC) |
| Time | Latitude | Longitude | Altitude | Speed | Heading |
|---|---|---|---|---|---|
| 2026-05-05 18:37 | 48.11586 | 16.56629 | 609 ft | 0 kts | 206° |
| 2026-05-05 19:04 | 48.11574 | 16.56621 | 609 ft | 5 kts | 206° |
| 2026-05-05 19:04 | 48.11551 | 16.56603 | 615 ft | 7 kts | 206° |
| 2026-05-05 19:04 | 48.11539 | 16.56544 | 618 ft | 7 kts | 290° |
| 2026-05-05 19:04 | 48.11565 | 16.56464 | 616 ft | 10 kts | 296° |
| 2026-05-05 19:05 | 48.11600 | 16.56358 | 612 ft | 13 kts | 296° |
| 2026-05-05 19:05 | 48.11642 | 16.56230 | 611 ft | 15 kts | 296° |
| 2026-05-05 19:05 | 48.11691 | 16.56079 | 615 ft | 16 kts | 296° |
| 2026-05-05 19:05 | 48.11743 | 16.55920 | 612 ft | 18 kts | 296° |
| 2026-05-05 19:06 | 48.11798 | 16.55750 | 613 ft | 13 kts | 296° |
| 2026-05-05 19:06 | 48.11841 | 16.55617 | 616 ft | 15 kts | 296° |
| 2026-05-05 19:06 | 48.11880 | 16.55493 | 614 ft | 12 kts | 288° |
| 2026-05-05 19:06 | 48.11910 | 16.55368 | 620 ft | 14 kts | 296° |
| 2026-05-05 19:07 | 48.11947 | 16.55255 | 609 ft | 10 kts | 291° |
| 2026-05-05 19:07 | 48.11917 | 16.55178 | 616 ft | 9 kts | 223° |
| 2026-05-05 19:07 | 48.11921 | 16.55088 | 620 ft | 10 kts | 297° |
| 2026-05-05 19:07 | 48.11957 | 16.54982 | 613 ft | 13 kts | 295° |
| 2026-05-05 19:08 | 48.11998 | 16.54851 | 615 ft | 15 kts | 295° |
| 2026-05-05 19:08 | 48.12049 | 16.54701 | 622 ft | 15 kts | 296° |
| 2026-05-05 19:08 | 48.12078 | 16.54601 | 614 ft | 8 kts | 282° |
| 2026-05-05 19:08 | 48.12043 | 16.54541 | 612 ft | 9 kts | 197° |
| 2026-05-05 19:09 | 48.11988 | 16.54567 | 619 ft | 9 kts | 144° |
| 2026-05-05 19:09 | 48.11953 | 16.54601 | 617 ft | 0 kts | 147° |
| 2026-05-05 19:10 | 48.11951 | 16.54603 | 617 ft | 1 kts | 147° |
| 2026-05-05 19:10 | 48.11927 | 16.54626 | 609 ft | 7 kts | 147° |
| 2026-05-05 19:10 | 48.11870 | 16.54663 | 609 ft | 10 kts | 163° |
| 2026-05-05 19:11 | 48.11829 | 16.54727 | 619 ft | 0 kts | 118° |
| 2026-05-05 19:11 | 48.11825 | 16.54739 | 618 ft | 11 kts | 117° |
| 2026-05-05 19:12 | 48.11681 | 16.55177 | 617 ft | 81 kts | 115° |
| 2026-05-05 19:12 | 48.11348 | 16.56199 | 613 ft | 135 kts | 116° |
| 2026-05-05 19:12 | 48.10891 | 16.57622 | 872 ft | 156 kts | 120° |
| 2026-05-05 19:12 | 48.10487 | 16.59106 | 1507 ft | 152 kts | 118° |
| 2026-05-05 19:13 | 48.10149 | 16.60597 | 2122 ft | 151 kts | 121° |
| 2026-05-05 19:13 | 48.09842 | 16.62114 | 2589 ft | 155 kts | 118° |
| 2026-05-05 19:13 | 48.09445 | 16.63655 | 2917 ft | 163 kts | 132° |
| 2026-05-05 19:13 | 48.08674 | 16.64920 | 3226 ft | 168 kts | 155° |
| 2026-05-05 19:14 | 48.07590 | 16.65767 | 3604 ft | 182 kts | 168° |
| 2026-05-05 19:14 | 48.06341 | 16.66139 | 4228 ft | 185 kts | 182° |
| 2026-05-05 19:14 | 48.05076 | 16.65926 | 4856 ft | 183 kts | 200° |
| 2026-05-05 19:14 | 48.03947 | 16.65071 | 5473 ft | 183 kts | 219° |
| 2026-05-05 19:15 | 48.03098 | 16.63627 | 6111 ft | 190 kts | 239° |
| 2026-05-05 19:15 | 48.02609 | 16.61758 | 6715 ft | 198 kts | 249° |
| 2026-05-05 19:15 | 48.02165 | 16.59783 | 7328 ft | 203 kts | 249° |
| 2026-05-05 19:15 | 48.01701 | 16.57755 | 7960 ft | 209 kts | 248° |
| 2026-05-05 19:16 | 48.01211 | 16.55685 | 8585 ft | 213 kts | 244° |
| 2026-05-05 19:16 | 48.00404 | 16.53828 | 9233 ft | 215 kts | 232° |
| 2026-05-05 19:16 | 47.99502 | 16.52033 | 9872 ft | 218 kts | 231° |
| 2026-05-05 19:16 | 47.98577 | 16.50216 | 10467 ft | 222 kts | 231° |
| 2026-05-05 19:17 | 47.97642 | 16.48381 | 11070 ft | 223 kts | 231° |
| 2026-05-05 19:17 | 47.96715 | 16.46552 | 11690 ft | 224 kts | 231° |
| 2026-05-05 19:17 | 47.95752 | 16.44652 | 12244 ft | 230 kts | 231° |
| 2026-05-05 19:17 | 47.94767 | 16.42705 | 12647 ft | 243 kts | 231° |
| 2026-05-05 19:18 | 47.93717 | 16.40632 | 12924 ft | 264 kts | 231° |
| 2026-05-05 19:18 | 47.92580 | 16.38385 | 13360 ft | 278 kts | 231° |
| 2026-05-05 19:18 | 47.91397 | 16.36047 | 13812 ft | 291 kts | 231° |
| 2026-05-05 19:18 | 47.90149 | 16.33588 | 14243 ft | 303 kts | 232° |
| 2026-05-05 19:19 | 47.88858 | 16.31047 | 14686 ft | 314 kts | 232° |
| 2026-05-05 19:19 | 47.87539 | 16.28450 | 15128 ft | 324 kts | 232° |
| 2026-05-05 19:19 | 47.86230 | 16.25872 | 15557 ft | 332 kts | 232° |
| 2026-05-05 19:19 | 47.84817 | 16.23096 | 16007 ft | 341 kts | 232° |
| 2026-05-05 19:20 | 47.83370 | 16.20256 | 16465 ft | 347 kts | 232° |
| 2026-05-05 19:20 | 47.81900 | 16.17372 | 16936 ft | 354 kts | 232° |
| 2026-05-05 19:20 | 47.80400 | 16.14434 | 17461 ft | 360 kts | 232° |
| 2026-05-05 19:20 | 47.78871 | 16.11444 | 18024 ft | 365 kts | 232° |
| 2026-05-05 19:21 | 47.77322 | 16.08417 | 18528 ft | 370 kts | 232° |
| 2026-05-05 19:21 | 47.75752 | 16.05353 | 19028 ft | 375 kts | 232° |
| 2026-05-05 19:21 | 47.74164 | 16.02255 | 19531 ft | 379 kts | 232° |
| 2026-05-05 19:21 | 47.72557 | 15.99125 | 20048 ft | 383 kts | 232° |
| 2026-05-05 19:22 | 47.70934 | 15.95968 | 20567 ft | 386 kts | 232° |
| 2026-05-05 19:22 | 47.69300 | 15.92794 | 21115 ft | 389 kts | 232° |
| 2026-05-05 19:22 | 47.67647 | 15.89585 | 21655 ft | 392 kts | 232° |
| 2026-05-05 19:22 | 47.65988 | 15.86368 | 22207 ft | 394 kts | 232° |
| 2026-05-05 19:23 | 47.64318 | 15.83133 | 22768 ft | 396 kts | 232° |
| 2026-05-05 19:23 | 47.62771 | 15.80141 | 23316 ft | 397 kts | 232° |
| 2026-05-05 19:23 | 47.61085 | 15.76883 | 23810 ft | 399 kts | 232° |
| 2026-05-05 19:23 | 47.59412 | 15.73655 | 24293 ft | 399 kts | 231° |
| 2026-05-05 19:24 | 47.57720 | 15.70393 | 24794 ft | 400 kts | 232° |
| 2026-05-05 19:24 | 47.56040 | 15.67159 | 25308 ft | 400 kts | 231° |
| 2026-05-05 19:24 | 47.54346 | 15.63900 | 25832 ft | 399 kts | 231° |
| 2026-05-05 19:24 | 47.52654 | 15.60650 | 26355 ft | 398 kts | 232° |
| 2026-05-05 19:25 | 47.50969 | 15.57411 | 26884 ft | 396 kts | 233° |
| 2026-05-05 19:25 | 47.49457 | 15.54017 | 27435 ft | 395 kts | 239° |
| 2026-05-05 19:25 | 47.48272 | 15.50519 | 27973 ft | 394 kts | 245° |
| 2026-05-05 19:25 | 47.47337 | 15.46724 | 28531 ft | 392 kts | 252° |
| 2026-05-05 19:26 | 47.46610 | 15.42916 | 29095 ft | 389 kts | 252° |
| 2026-05-05 19:26 | 47.45876 | 15.39093 | 29676 ft | 384 kts | 252° |
| 2026-05-05 19:26 | 47.45143 | 15.35317 | 30225 ft | 380 kts | 252° |
| 2026-05-05 19:26 | 47.44416 | 15.31591 | 30740 ft | 375 kts | 252° |
| 2026-05-05 19:27 | 47.43695 | 15.27915 | 31260 ft | 370 kts | 252° |
| 2026-05-05 19:27 | 47.42984 | 15.24295 | 31787 ft | 364 kts | 253° |
| 2026-05-05 19:27 | 47.42284 | 15.20743 | 32327 ft | 357 kts | 253° |
| 2026-05-05 19:27 | 47.41596 | 15.17253 | 32852 ft | 350 kts | 253° |
| 2026-05-05 19:28 | 47.40919 | 15.13820 | 33176 ft | 349 kts | 253° |
| 2026-05-05 19:28 | 47.40233 | 15.10353 | 33234 ft | 355 kts | 253° |
| 2026-05-05 19:28 | 47.39538 | 15.06848 | 33440 ft | 356 kts | 253° |
| 2026-05-05 19:28 | 47.38842 | 15.03342 | 33650 ft | 357 kts | 253° |
| 2026-05-05 19:29 | 47.38144 | 14.99829 | 33832 ft | 359 kts | 253° |
| 2026-05-05 19:29 | 47.37435 | 14.96271 | 33874 ft | 364 kts | 253° |
| 2026-05-05 19:29 | 47.35984 | 14.88995 | 33878 ft | 376 kts | 253° |
| 2026-05-05 19:30 | 47.34474 | 14.81455 | 33885 ft | 390 kts | 253° |
| 2026-05-05 19:30 | 47.32906 | 14.73660 | 33883 ft | 404 kts | 253° |
| 2026-05-05 19:31 | 47.31277 | 14.65592 | 33879 ft | 417 kts | 252° |
| 2026-05-05 19:31 | 47.29589 | 14.57268 | 33880 ft | 430 kts | 252° |
| 2026-05-05 19:32 | 47.27858 | 14.48765 | 33884 ft | 435 kts | 252° |
| 2026-05-05 19:32 | 47.26114 | 14.40237 | 33887 ft | 435 kts | 252° |
| 2026-05-05 19:33 | 47.24364 | 14.31712 | 33883 ft | 435 kts | 252° |
| 2026-05-05 19:33 | 47.22608 | 14.23202 | 33891 ft | 435 kts | 252° |
| 2026-05-05 19:34 | 47.20842 | 14.14698 | 33919 ft | 434 kts | 252° |
| 2026-05-05 19:35 | 47.18199 | 14.02010 | 33913 ft | 432 kts | 252° |
| 2026-05-05 19:35 | 47.16434 | 13.93590 | 33902 ft | 431 kts | 252° |
| 2026-05-05 19:36 | 47.14669 | 13.85201 | 33909 ft | 429 kts | 252° |
| 2026-05-05 19:36 | 47.12900 | 13.76829 | 33907 ft | 428 kts | 252° |
| 2026-05-05 19:37 | 47.11130 | 13.68482 | 33909 ft | 428 kts | 251° |
| 2026-05-05 19:37 | 47.09357 | 13.60154 | 33901 ft | 428 kts | 251° |
| 2026-05-05 19:38 | 47.07577 | 13.51836 | 33922 ft | 426 kts | 251° |
| 2026-05-05 19:38 | 47.05795 | 13.43540 | 33903 ft | 426 kts | 251° |
| 2026-05-05 19:39 | 47.04022 | 13.35314 | 33895 ft | 426 kts | 251° |
| 2026-05-05 19:39 | 47.02230 | 13.27034 | 33916 ft | 426 kts | 251° |
| 2026-05-05 19:40 | 47.00428 | 13.18751 | 33930 ft | 427 kts | 250° |
| 2026-05-05 19:40 | 46.98621 | 13.10474 | 33921 ft | 426 kts | 250° |
| 2026-05-05 19:41 | 46.96812 | 13.02211 | 33928 ft | 426 kts | 250° |
| 2026-05-05 19:41 | 46.94999 | 12.93971 | 33937 ft | 426 kts | 250° |
| 2026-05-05 19:42 | 46.93172 | 12.85704 | 33933 ft | 426 kts | 250° |
| 2026-05-05 19:42 | 46.91346 | 12.77470 | 33941 ft | 426 kts | 250° |
| 2026-05-05 19:43 | 46.89514 | 12.69233 | 33960 ft | 426 kts | 250° |
| 2026-05-05 19:43 | 46.87682 | 12.61042 | 33960 ft | 420 kts | 250° |
| 2026-05-05 19:44 | 46.85863 | 12.52931 | 33980 ft | 420 kts | 250° |
| 2026-05-05 19:44 | 46.84036 | 12.44828 | 33989 ft | 419 kts | 250° |
| 2026-05-05 19:45 | 46.82207 | 12.36731 | 34002 ft | 420 kts | 250° |
| 2026-05-05 19:45 | 46.80320 | 12.28675 | 34042 ft | 418 kts | 247° |
| 2026-05-05 19:46 | 46.77831 | 12.21037 | 34027 ft | 416 kts | 242° |
| 2026-05-05 19:46 | 46.75246 | 12.13505 | 33932 ft | 415 kts | 242° |
| 2026-05-05 19:47 | 46.72680 | 12.06024 | 33977 ft | 409 kts | 243° |
| 2026-05-05 19:47 | 46.70129 | 11.98616 | 33950 ft | 408 kts | 243° |
| 2026-05-05 19:48 | 46.67580 | 11.91244 | 33956 ft | 406 kts | 243° |
| 2026-05-05 19:48 | 46.65036 | 11.83902 | 33932 ft | 406 kts | 243° |
| 2026-05-05 19:49 | 46.62924 | 11.77821 | 33929 ft | 405 kts | 243° |
| 2026-05-05 19:49 | 46.60377 | 11.70512 | 33931 ft | 405 kts | 243° |
| 2026-05-05 19:50 | 46.57825 | 11.63206 | 33961 ft | 405 kts | 243° |
| 2026-05-05 19:50 | 46.55274 | 11.55928 | 33984 ft | 403 kts | 243° |
| 2026-05-05 19:51 | 46.52724 | 11.48677 | 33976 ft | 403 kts | 243° |
| 2026-05-05 19:51 | 46.50177 | 11.41445 | 33974 ft | 402 kts | 243° |
| 2026-05-05 19:52 | 46.47634 | 11.34236 | 33964 ft | 400 kts | 243° |
| 2026-05-05 19:52 | 46.45095 | 11.27062 | 33977 ft | 399 kts | 242° |
| 2026-05-05 19:53 | 46.42576 | 11.19971 | 33971 ft | 398 kts | 242° |
| 2026-05-05 19:53 | 46.40043 | 11.12861 | 34065 ft | 396 kts | 242° |
| 2026-05-05 19:54 | 46.37517 | 11.05782 | 34058 ft | 395 kts | 242° |
| 2026-05-05 19:54 | 46.34997 | 10.98739 | 34042 ft | 394 kts | 242° |
| 2026-05-05 19:55 | 46.32476 | 10.91713 | 34033 ft | 393 kts | 242° |
| 2026-05-05 19:55 | 46.29954 | 10.84688 | 34046 ft | 393 kts | 242° |
| 2026-05-05 19:56 | 46.27507 | 10.77642 | 34022 ft | 392 kts | 243° |
| 2026-05-05 19:56 | 46.24563 | 10.71076 | 33999 ft | 392 kts | 226° |
| 2026-05-05 19:56 | 46.22387 | 10.68676 | 33990 ft | 397 kts | 213° |
| 2026-05-05 19:57 | 46.19831 | 10.67081 | 33986 ft | 405 kts | 201° |
| 2026-05-05 19:57 | 46.17027 | 10.66385 | 33971 ft | 416 kts | 189° |
| 2026-05-05 19:57 | 46.14105 | 10.66498 | 33968 ft | 422 kts | 184° |
| 2026-05-05 19:58 | 46.08214 | 10.67075 | 34008 ft | 427 kts | 184° |
| 2026-05-05 19:58 | 46.02333 | 10.67705 | 34004 ft | 420 kts | 184° |
| 2026-05-05 19:59 | 45.96469 | 10.68364 | 33892 ft | 424 kts | 184° |
| 2026-05-05 19:59 | 45.93525 | 10.68688 | 33501 ft | 425 kts | 184° |
| 2026-05-05 19:59 | 45.90572 | 10.68998 | 32917 ft | 425 kts | 184° |
| 2026-05-05 19:59 | 45.87617 | 10.69282 | 32329 ft | 425 kts | 184° |
| 2026-05-05 20:00 | 45.84666 | 10.69512 | 31718 ft | 423 kts | 188° |
| 2026-05-05 20:00 | 45.81759 | 10.69040 | 31208 ft | 419 kts | 200° |
| 2026-05-05 20:00 | 45.79051 | 10.67622 | 31030 ft | 412 kts | 212° |
| 2026-05-05 20:00 | 45.76664 | 10.65411 | 31019 ft | 408 kts | 223° |
| 2026-05-05 20:01 | 45.74692 | 10.62538 | 30985 ft | 404 kts | 233° |
| 2026-05-05 20:01 | 45.73213 | 10.59125 | 30988 ft | 403 kts | 244° |
| 2026-05-05 20:01 | 45.72294 | 10.55329 | 31003 ft | 408 kts | 255° |
| 2026-05-05 20:01 | 45.71974 | 10.51273 | 30993 ft | 414 kts | 266° |
| 2026-05-05 20:02 | 45.72287 | 10.47150 | 30844 ft | 418 kts | 276° |
| 2026-05-05 20:02 | 45.72887 | 10.43135 | 30439 ft | 409 kts | 276° |
| 2026-05-05 20:02 | 45.73476 | 10.39180 | 29947 ft | 403 kts | 276° |
| 2026-05-05 20:02 | 45.74046 | 10.35290 | 29374 ft | 397 kts | 276° |
| 2026-05-05 20:03 | 45.74604 | 10.31443 | 28826 ft | 392 kts | 276° |
| 2026-05-05 20:03 | 45.75152 | 10.27640 | 28283 ft | 387 kts | 276° |
| 2026-05-05 20:03 | 45.75689 | 10.23897 | 27791 ft | 383 kts | 275° |
| 2026-05-05 20:03 | 45.76224 | 10.20168 | 27260 ft | 379 kts | 275° |
| 2026-05-05 20:04 | 45.76749 | 10.16494 | 26752 ft | 375 kts | 275° |
| 2026-05-05 20:04 | 45.77268 | 10.12854 | 26248 ft | 372 kts | 275° |
| 2026-05-05 20:04 | 45.77780 | 10.09242 | 25746 ft | 368 kts | 275° |
| 2026-05-05 20:04 | 45.78282 | 10.05705 | 25264 ft | 366 kts | 275° |
| 2026-05-05 20:05 | 45.78785 | 10.02155 | 24781 ft | 363 kts | 275° |
| 2026-05-05 20:05 | 45.79288 | 9.98630 | 24310 ft | 361 kts | 277° |
| 2026-05-05 20:05 | 45.80174 | 9.95402 | 23868 ft | 370 kts | 292° |
| 2026-05-05 20:05 | 45.81427 | 9.92301 | 23388 ft | 369 kts | 294° |
| 2026-05-05 20:06 | 45.82673 | 9.89259 | 22868 ft | 367 kts | 294° |
| 2026-05-05 20:06 | 45.83874 | 9.86302 | 22386 ft | 365 kts | 294° |
| 2026-05-05 20:06 | 45.84893 | 9.83163 | 21925 ft | 351 kts | 279° |
| 2026-05-05 20:06 | 45.85201 | 9.79804 | 21616 ft | 331 kts | 265° |
| 2026-05-05 20:07 | 45.85215 | 9.76503 | 21337 ft | 323 kts | 265° |
| 2026-05-05 20:07 | 45.85228 | 9.73310 | 21081 ft | 316 kts | 265° |
| 2026-05-05 20:07 | 45.85241 | 9.70263 | 21008 ft | 302 kts | 265° |
| 2026-05-05 20:07 | 45.85253 | 9.67336 | 21003 ft | 288 kts | 265° |
| 2026-05-05 20:08 | 45.85261 | 9.64494 | 20792 ft | 285 kts | 265° |
| 2026-05-05 20:08 | 45.85264 | 9.61622 | 20314 ft | 290 kts | 265° |
| 2026-05-05 20:08 | 45.85266 | 9.58710 | 19829 ft | 294 kts | 265° |
| 2026-05-05 20:08 | 45.85057 | 9.55780 | 19335 ft | 291 kts | 253° |
| 2026-05-05 20:09 | 45.84449 | 9.53054 | 18865 ft | 291 kts | 244° |
| 2026-05-05 20:09 | 45.83549 | 9.50451 | 18392 ft | 292 kts | 242° |
| 2026-05-05 20:09 | 45.82650 | 9.47862 | 18084 ft | 286 kts | 242° |
| 2026-05-05 20:09 | 45.81787 | 9.45349 | 17990 ft | 274 kts | 242° |
| 2026-05-05 20:10 | 45.80958 | 9.42930 | 17997 ft | 271 kts | 242° |
| 2026-05-05 20:10 | 45.80117 | 9.40486 | 17991 ft | 275 kts | 242° |
| 2026-05-05 20:10 | 45.79267 | 9.38019 | 17763 ft | 277 kts | 242° |
| 2026-05-05 20:10 | 45.78415 | 9.35550 | 17424 ft | 275 kts | 242° |
| 2026-05-05 20:11 | 45.77574 | 9.33113 | 17109 ft | 271 kts | 242° |
| 2026-05-05 20:11 | 45.76744 | 9.30711 | 16796 ft | 267 kts | 242° |
| 2026-05-05 20:11 | 45.75916 | 9.28320 | 16488 ft | 270 kts | 242° |
| 2026-05-05 20:11 | 45.75097 | 9.25954 | 16189 ft | 268 kts | 242° |
| 2026-05-05 20:12 | 45.74274 | 9.23578 | 16019 ft | 264 kts | 242° |
| 2026-05-05 20:12 | 45.73453 | 9.21208 | 15988 ft | 267 kts | 242° |
| 2026-05-05 20:12 | 45.72625 | 9.18820 | 15986 ft | 268 kts | 242° |
| 2026-05-05 20:12 | 45.71795 | 9.16430 | 15980 ft | 268 kts | 242° |
| 2026-05-05 20:13 | 45.70967 | 9.14046 | 15984 ft | 268 kts | 242° |
| 2026-05-05 20:13 | 45.70140 | 9.11667 | 15982 ft | 268 kts | 242° |
| 2026-05-05 20:13 | 45.69309 | 9.09280 | 15988 ft | 268 kts | 242° |
| 2026-05-05 20:13 | 45.68488 | 9.06921 | 15984 ft | 268 kts | 242° |
| 2026-05-05 20:14 | 45.67661 | 9.04550 | 15986 ft | 268 kts | 242° |
| 2026-05-05 20:14 | 45.66827 | 9.02161 | 15978 ft | 269 kts | 242° |
| 2026-05-05 20:14 | 45.65985 | 8.99752 | 15711 ft | 273 kts | 242° |
| 2026-05-05 20:14 | 45.65136 | 8.97326 | 15332 ft | 272 kts | 242° |
| 2026-05-05 20:15 | 45.64289 | 8.94914 | 14967 ft | 271 kts | 242° |
| 2026-05-05 20:15 | 45.63445 | 8.92516 | 14604 ft | 269 kts | 242° |
| 2026-05-05 20:15 | 45.62607 | 8.90138 | 14241 ft | 268 kts | 242° |
| 2026-05-05 20:15 | 45.61773 | 8.87780 | 13887 ft | 266 kts | 241° |
| 2026-05-05 20:16 | 45.60686 | 8.85663 | 13495 ft | 264 kts | 224° |
| 2026-05-05 20:16 | 45.59184 | 8.84171 | 13094 ft | 264 kts | 205° |
| 2026-05-05 20:16 | 45.57419 | 8.83487 | 12704 ft | 265 kts | 186° |
| 2026-05-05 20:16 | 45.55581 | 8.83702 | 12316 ft | 268 kts | 167° |
| 2026-05-05 20:17 | 45.53880 | 8.84819 | 11932 ft | 273 kts | 147° |
| 2026-05-05 20:17 | 45.52537 | 8.86733 | 11555 ft | 277 kts | 127° |
| 2026-05-05 20:17 | 45.51737 | 8.89230 | 11181 ft | 280 kts | 105° |
| 2026-05-05 20:17 | 45.51608 | 8.91995 | 10809 ft | 282 kts | 84° |
| 2026-05-05 20:18 | 45.52181 | 8.94664 | 10442 ft | 283 kts | 62° |
| 2026-05-05 20:18 | 45.53385 | 8.96861 | 10112 ft | 281 kts | 40° |
| 2026-05-05 20:18 | 45.54996 | 8.98254 | 10003 ft | 269 kts | 21° |
| 2026-05-05 20:18 | 45.56668 | 8.99262 | 9984 ft | 254 kts | 22° |
| 2026-05-05 20:19 | 45.58295 | 9.00281 | 9983 ft | 258 kts | 23° |
| 2026-05-05 20:19 | 45.59940 | 9.01319 | 9984 ft | 259 kts | 22° |
| 2026-05-05 20:19 | 45.61608 | 9.02367 | 9990 ft | 258 kts | 22° |
| 2026-05-05 20:19 | 45.63256 | 9.03397 | 9986 ft | 258 kts | 22° |
| 2026-05-05 20:20 | 45.64883 | 9.04400 | 9986 ft | 258 kts | 19° |
| 2026-05-05 20:20 | 45.66623 | 9.04885 | 9985 ft | 256 kts | 357° |
| 2026-05-05 20:20 | 45.68352 | 9.04448 | 9985 ft | 252 kts | 335° |
| 2026-05-05 20:20 | 45.69844 | 9.03140 | 9988 ft | 248 kts | 313° |
| 2026-05-05 20:21 | 45.70864 | 9.01232 | 9981 ft | 243 kts | 292° |
| 2026-05-05 20:21 | 45.71354 | 8.98915 | 9981 ft | 239 kts | 272° |
| 2026-05-05 20:21 | 45.71262 | 8.96607 | 9983 ft | 235 kts | 253° |
| 2026-05-05 20:21 | 45.70632 | 8.94474 | 9986 ft | 233 kts | 234° |
| 2026-05-05 20:22 | 45.69549 | 8.92777 | 9991 ft | 232 kts | 216° |
| 2026-05-05 20:22 | 45.68138 | 8.91674 | 9992 ft | 232 kts | 202° |
| 2026-05-05 20:22 | 45.66652 | 8.90775 | 9991 ft | 232 kts | 203° |
| 2026-05-05 20:22 | 45.65169 | 8.89858 | 9991 ft | 232 kts | 204° |
| 2026-05-05 20:23 | 45.63691 | 8.88939 | 9992 ft | 232 kts | 204° |
| 2026-05-05 20:23 | 45.62217 | 8.88021 | 9986 ft | 232 kts | 204° |
| 2026-05-05 20:23 | 45.60708 | 8.87207 | 9991 ft | 232 kts | 191° |
| 2026-05-05 20:23 | 45.59091 | 8.87159 | 9990 ft | 235 kts | 171° |
| 2026-05-05 20:24 | 45.57547 | 8.87939 | 9993 ft | 238 kts | 152° |
| 2026-05-05 20:24 | 45.56260 | 8.89447 | 9990 ft | 243 kts | 132° |
| 2026-05-05 20:24 | 45.55401 | 8.91527 | 9990 ft | 247 kts | 111° |
| 2026-05-05 20:24 | 45.55100 | 8.93951 | 9988 ft | 252 kts | 90° |
| 2026-05-05 20:25 | 45.55433 | 8.96408 | 9985 ft | 255 kts | 68° |
| 2026-05-05 20:25 | 45.56371 | 8.98537 | 9988 ft | 258 kts | 46° |
| 2026-05-05 20:25 | 45.57808 | 9.00047 | 9987 ft | 258 kts | 23° |
| 2026-05-05 20:25 | 45.59451 | 9.01043 | 9987 ft | 258 kts | 21° |
| 2026-05-05 20:26 | 45.61104 | 9.02048 | 9986 ft | 258 kts | 22° |
| 2026-05-05 20:26 | 45.62753 | 9.03066 | 9984 ft | 258 kts | 22° |
| 2026-05-05 20:26 | 45.64399 | 9.04089 | 9986 ft | 258 kts | 22° |
| 2026-05-05 20:26 | 45.66108 | 9.04811 | 9988 ft | 256 kts | 3° |
| 2026-05-05 20:27 | 45.67868 | 9.04647 | 9987 ft | 253 kts | 341° |
| 2026-05-05 20:27 | 45.69436 | 9.03595 | 9994 ft | 249 kts | 320° |
| 2026-05-05 20:27 | 45.70616 | 9.01825 | 9982 ft | 245 kts | 298° |
| 2026-05-05 20:27 | 45.71267 | 8.99611 | 9978 ft | 240 kts | 278° |
| 2026-05-05 20:28 | 45.71351 | 8.97276 | 9805 ft | 238 kts | 259° |
| 2026-05-05 20:28 | 45.70862 | 8.95029 | 9538 ft | 232 kts | 239° |
| 2026-05-05 20:28 | 45.69896 | 8.93203 | 9284 ft | 230 kts | 221° |
| 2026-05-05 20:28 | 45.68591 | 8.91957 | 9042 ft | 229 kts | 203° |
| 2026-05-05 20:29 | 45.67107 | 8.91074 | 8987 ft | 228 kts | 203° |
| 2026-05-05 20:29 | 45.65667 | 8.90186 | 8988 ft | 230 kts | 203° |
| 2026-05-05 20:29 | 45.64203 | 8.89271 | 8990 ft | 230 kts | 204° |
| 2026-05-05 20:29 | 45.62739 | 8.88353 | 8991 ft | 229 kts | 204° |
| 2026-05-05 20:30 | 45.61263 | 8.87503 | 8991 ft | 229 kts | 193° |
| 2026-05-05 20:30 | 45.59673 | 8.87456 | 8991 ft | 232 kts | 167° |
| 2026-05-05 20:30 | 45.58230 | 8.88493 | 8927 ft | 238 kts | 140° |
| 2026-05-05 20:30 | 45.57295 | 8.90442 | 8689 ft | 243 kts | 110° |
| 2026-05-05 20:31 | 45.57162 | 8.92831 | 8437 ft | 246 kts | 79° |
| 2026-05-05 20:31 | 45.57879 | 8.95033 | 8179 ft | 248 kts | 49° |
| 2026-05-05 20:31 | 45.59254 | 8.96438 | 8007 ft | 246 kts | 22° |
| 2026-05-05 20:31 | 45.60839 | 8.97386 | 7987 ft | 248 kts | 22° |
| 2026-05-05 20:32 | 45.62427 | 8.98351 | 7995 ft | 247 kts | 22° |
| 2026-05-05 20:32 | 45.64005 | 8.99325 | 7988 ft | 247 kts | 23° |
| 2026-05-05 20:32 | 45.65605 | 9.00208 | 7979 ft | 246 kts | 9° |
| 2026-05-05 20:32 | 45.67292 | 9.00095 | 7988 ft | 245 kts | 338° |
| 2026-05-05 20:33 | 45.68697 | 8.98804 | 7984 ft | 240 kts | 308° |
| 2026-05-05 20:33 | 45.69447 | 8.96824 | 7984 ft | 235 kts | 280° |
| 2026-05-05 20:33 | 45.69461 | 8.94540 | 7989 ft | 231 kts | 252° |
| 2026-05-05 20:33 | 45.68737 | 8.92526 | 7924 ft | 230 kts | 226° |
| 2026-05-05 20:34 | 45.67932 | 8.91557 | 7771 ft | 228 kts | 208° |
| 2026-05-05 20:34 | 45.66496 | 8.90646 | 7529 ft | 226 kts | 202° |
| 2026-05-05 20:34 | 45.65049 | 8.89774 | 7279 ft | 226 kts | 202° |
| 2026-05-05 20:34 | 45.63610 | 8.88892 | 7050 ft | 225 kts | 202° |
| 2026-05-05 20:35 | 45.62178 | 8.88006 | 6990 ft | 224 kts | 203° |
| 2026-05-05 20:35 | 45.60696 | 8.87384 | 6994 ft | 224 kts | 182° |
| 2026-05-05 20:35 | 45.59167 | 8.87808 | 6993 ft | 228 kts | 154° |
| 2026-05-05 20:35 | 45.57978 | 8.89288 | 6992 ft | 232 kts | 123° |
| 2026-05-05 20:36 | 45.57471 | 8.91473 | 6991 ft | 237 kts | 92° |
| 2026-05-05 20:36 | 45.57828 | 8.93758 | 6991 ft | 241 kts | 61° |
| 2026-05-05 20:36 | 45.58983 | 8.95474 | 6990 ft | 243 kts | 28° |
| 2026-05-05 20:36 | 45.60526 | 8.96465 | 6985 ft | 243 kts | 22° |
| 2026-05-05 20:37 | 45.62085 | 8.97401 | 6988 ft | 243 kts | 22° |
| 2026-05-05 20:37 | 45.63636 | 8.98340 | 6976 ft | 242 kts | 22° |
| 2026-05-05 20:37 | 45.65210 | 8.99214 | 6778 ft | 243 kts | 10° |
| 2026-05-05 20:37 | 45.66859 | 8.99097 | 6535 ft | 238 kts | 338° |
| 2026-05-05 20:38 | 45.68196 | 8.97779 | 6292 ft | 234 kts | 305° |
| 2026-05-05 20:38 | 45.68847 | 8.95699 | 6042 ft | 230 kts | 274° |
| 2026-05-05 20:38 | 45.68676 | 8.93475 | 5991 ft | 226 kts | 245° |
| 2026-05-05 20:38 | 45.67784 | 8.91664 | 5990 ft | 224 kts | 217° |
| 2026-05-05 20:39 | 45.66420 | 8.90615 | 5992 ft | 224 kts | 202° |
| 2026-05-05 20:39 | 45.64984 | 8.89745 | 5991 ft | 224 kts | 202° |
| 2026-05-05 20:39 | 45.63555 | 8.88867 | 5991 ft | 223 kts | 202° |
| 2026-05-05 20:39 | 45.62129 | 8.87983 | 5992 ft | 223 kts | 202° |
| 2026-05-05 20:40 | 45.60685 | 8.87212 | 5987 ft | 222 kts | 187° |
| 2026-05-05 20:40 | 45.59151 | 8.87417 | 5992 ft | 224 kts | 163° |
| 2026-05-05 20:40 | 45.57688 | 8.88155 | 5991 ft | 224 kts | 160° |
| 2026-05-05 20:40 | 45.56235 | 8.88892 | 5991 ft | 224 kts | 163° |
| 2026-05-05 20:41 | 45.54721 | 8.89520 | 5998 ft | 223 kts | 166° |
| 2026-05-05 20:41 | 45.53229 | 8.90022 | 5989 ft | 224 kts | 168° |
| 2026-05-05 20:41 | 45.51705 | 8.90466 | 5990 ft | 223 kts | 169° |
| 2026-05-05 20:41 | 45.50179 | 8.90882 | 5991 ft | 223 kts | 170° |
| 2026-05-05 20:42 | 45.48682 | 8.91282 | 5985 ft | 213 kts | 170° |
| 2026-05-05 20:42 | 45.47234 | 8.91669 | 5988 ft | 213 kts | 170° |
| 2026-05-05 20:42 | 45.45780 | 8.92058 | 5986 ft | 213 kts | 170° |
| 2026-05-05 20:42 | 45.44322 | 8.92449 | 5989 ft | 213 kts | 170° |
| 2026-05-05 20:43 | 45.42869 | 8.92841 | 5985 ft | 213 kts | 170° |
| 2026-05-05 20:43 | 45.41418 | 8.93234 | 5984 ft | 211 kts | 170° |
| 2026-05-05 20:43 | 45.39969 | 8.93626 | 5985 ft | 212 kts | 170° |
| 2026-05-05 20:43 | 45.38522 | 8.94018 | 5983 ft | 212 kts | 170° |
| 2026-05-05 20:44 | 45.37086 | 8.94409 | 5983 ft | 208 kts | 171° |
| 2026-05-05 20:44 | 45.35657 | 8.94796 | 5989 ft | 210 kts | 171° |
| 2026-05-05 20:44 | 45.34215 | 8.95161 | 5936 ft | 210 kts | 177° |
| 2026-05-05 20:44 | 45.32815 | 8.94750 | 5701 ft | 207 kts | 211° |
| 2026-05-05 20:45 | 45.31726 | 8.91337 | 5282 ft | 203 kts | 281° |
| 2026-05-05 20:45 | 45.32433 | 8.89575 | 5047 ft | 210 kts | 311° |
| 2026-05-05 20:45 | 45.33459 | 8.88101 | 4801 ft | 209 kts | 313° |
| 2026-05-05 20:46 | 45.34487 | 8.86640 | 4548 ft | 208 kts | 313° |
| 2026-05-05 20:46 | 45.35506 | 8.85183 | 4292 ft | 207 kts | 313° |
| 2026-05-05 20:46 | 45.36515 | 8.83730 | 4055 ft | 205 kts | 313° |
| 2026-05-05 20:46 | 45.37511 | 8.82286 | 4001 ft | 205 kts | 313° |
| 2026-05-05 20:47 | 45.38531 | 8.80856 | 3994 ft | 206 kts | 322° |
| 2026-05-05 20:47 | 45.39849 | 8.80078 | 4005 ft | 208 kts | 345° |
| 2026-05-05 20:47 | 45.41235 | 8.79566 | 3994 ft | 200 kts | 345° |
| 2026-05-05 20:47 | 45.42506 | 8.79112 | 3996 ft | 185 kts | 346° |
| 2026-05-05 20:48 | 45.43766 | 8.78709 | 4000 ft | 188 kts | 348° |